sensor_id;sensor_type;location;lat;lon;timestamp;pressure;altitude;pressure_sealevel;temperature;humidity
11349;BME280;5729;43.570;27.826;2023-02-21T00:01:27;99009.41;;;6.21;100.00
11349;BME280;5729;43.570;27.826;2023-02-21T00:04:11;99024.38;;;6.34;100.00
11349;BME280;5729;43.570;27.826;2023-02-21T00:06:55;99014.59;;;6.38;100.00
11349;BME280;5729;43.570;27.826;2023-02-21T00:09:39;99015.75;;;6.49;100.00
11349;BME280;5729;43.570;27.826;2023-02-21T00:12:23;99020.56;;;6.56;100.00
11349;BME280;5729;43.570;27.826;2023-02-21T00:15:07;99021.28;;;6.65;100.00
11349;BME280;5729;43.570;27.826;2023-02-21T00:17:52;99010.44;;;6.62;100.00
11349;BME280;5729;43.570;27.826;2023-02-21T00:20:35;98995.59;;;6.64;100.00
11349;BME280;5729;43.570;27.826;2023-02-21T00:23:19;98990.31;;;6.55;100.00
11349;BME280;5729;43.570;27.826;2023-02-21T00:26:04;98995.25;;;6.53;100.00
11349;BME280;5729;43.570;27.826;2023-02-21T00:28:48;98991.88;;;6.56;100.00
11349;BME280;5729;43.570;27.826;2023-02-21T00:31:32;99005.81;;;6.50;100.00
11349;BME280;5729;43.570;27.826;2023-02-21T00:34:16;98995.88;;;6.38;100.00
11349;BME280;5729;43.570;27.826;2023-02-21T00:36:59;98985.34;;;6.33;100.00
11349;BME280;5729;43.570;27.826;2023-02-21T00:39:43;98986.13;;;6.34;100.00
11349;BME280;5729;43.570;27.826;2023-02-21T00:42:27;98980.22;;;6.28;100.00
11349;BME280;5729;43.570;27.826;2023-02-21T00:45:11;98979.34;;;6.36;100.00
11349;BME280;5729;43.570;27.826;2023-02-21T00:47:58;98964.75;;;6.46;100.00
11349;BME280;5729;43.570;27.826;2023-02-21T00:50:42;98977.44;;;6.37;100.00
11349;BME280;5729;43.570;27.826;2023-02-21T00:53:26;98967.06;;;6.35;100.00
11349;BME280;5729;43.570;27.826;2023-02-21T00:56:10;98980.25;;;6.40;100.00
11349;BME280;5729;43.570;27.826;2023-02-21T00:58:54;98966.91;;;6.52;100.00
11349;BME280;5729;43.570;27.826;2023-02-21T01:01:38;98989.31;;;6.48;100.00
11349;BME280;5729;43.570;27.826;2023-02-21T01:04:22;98987.88;;;6.50;100.00
11349;BME280;5729;43.570;27.826;2023-02-21T01:07:06;98982.66;;;6.54;100.00
11349;BME280;5729;43.570;27.826;2023-02-21T01:09:50;98980.75;;;6.54;100.00
11349;BME280;5729;43.570;27.826;2023-02-21T01:12:33;98972.72;;;6.54;100.00
11349;BME280;5729;43.570;27.826;2023-02-21T01:15:17;98966.44;;;6.50;100.00
11349;BME280;5729;43.570;27.826;2023-02-21T01:18:02;98973.03;;;6.53;100.00
11349;BME280;5729;43.570;27.826;2023-02-21T01:20:46;98967.00;;;6.56;100.00
11349;BME280;5729;43.570;27.826;2023-02-21T01:23:30;98961.13;;;6.63;100.00
11349;BME280;5729;43.570;27.826;2023-02-21T01:26:15;98941.94;;;6.73;100.00
11349;BME280;5729;43.570;27.826;2023-02-21T01:28:59;98948.94;;;6.77;100.00
11349;BME280;5729;43.570;27.826;2023-02-21T01:31:43;98951.53;;;6.74;100.00
11349;BME280;5729;43.570;27.826;2023-02-21T01:34:27;98945.94;;;6.91;100.00
11349;BME280;5729;43.570;27.826;2023-02-21T01:37:10;98925.88;;;6.97;100.00
11349;BME280;5729;43.570;27.826;2023-02-21T01:39:54;98934.44;;;7.03;100.00
11349;BME280;5729;43.570;27.826;2023-02-21T01:42:38;98944.97;;;6.96;100.00
11349;BME280;5729;43.570;27.826;2023-02-21T01:48:10;98914.72;;;6.95;100.00
11349;BME280;5729;43.570;27.826;2023-02-21T01:50:56;98911.91;;;7.04;100.00
11349;BME280;5729;43.570;27.826;2023-02-21T01:53:41;98901.41;;;7.11;100.00
11349;BME280;5729;43.570;27.826;2023-02-21T01:56:26;98897.50;;;7.08;100.00
11349;BME280;5729;43.570;27.826;2023-02-21T01:59:11;98899.72;;;7.06;100.00
11349;BME280;5729;43.570;27.826;2023-02-21T02:02:01;98899.06;;;7.09;100.00
11349;BME280;5729;43.570;27.826;2023-02-21T02:04:47;98904.50;;;7.13;100.00
11349;BME280;5729;43.570;27.826;2023-02-21T02:07:33;98894.03;;;7.20;100.00
11349;BME280;5729;43.570;27.826;2023-02-21T02:10:17;98896.38;;;7.21;100.00
11349;BME280;5729;43.570;27.826;2023-02-21T02:43:25;98887.38;;;7.42;100.00
11349;BME280;5729;43.570;27.826;2023-02-21T02:49:00;98880.00;;;7.39;100.00
11349;BME280;5729;43.570;27.826;2023-02-21T02:51:28;98870.75;;;7.36;100.00
11349;BME280;5729;43.570;27.826;2023-02-21T02:53:54;98865.94;;;7.42;100.00
11349;BME280;5729;43.570;27.826;2023-02-21T02:56:20;98866.16;;;7.37;100.00
11349;BME280;5729;43.570;27.826;2023-02-21T02:59:06;98885.41;;;7.26;100.00
11349;BME280;5729;43.570;27.826;2023-02-21T03:12:45;98856.38;;;7.16;100.00
11349;BME280;5729;43.570;27.826;2023-02-21T03:15:19;98867.78;;;7.13;100.00
11349;BME280;5729;43.570;27.826;2023-02-21T03:17:52;98858.44;;;7.07;100.00
11349;BME280;5729;43.570;27.826;2023-02-21T03:20:20;98851.69;;;7.13;100.00
11349;BME280;5729;43.570;27.826;2023-02-21T03:22:47;98868.00;;;7.20;100.00
11349;BME280;5729;43.570;27.826;2023-02-21T03:25:15;98865.75;;;7.22;100.00
11349;BME280;5729;43.570;27.826;2023-02-21T03:27:42;98860.84;;;7.24;100.00
11349;BME280;5729;43.570;27.826;2023-02-21T03:30:09;98865.97;;;7.29;100.00
11349;BME280;5729;43.570;27.826;2023-02-21T03:32:45;98874.00;;;7.29;100.00
11349;BME280;5729;43.570;27.826;2023-02-21T03:35:12;98861.47;;;7.34;100.00
11349;BME280;5729;43.570;27.826;2023-02-21T03:37:39;98866.94;;;7.37;100.00
11349;BME280;5729;43.570;27.826;2023-02-21T03:40:10;98860.13;;;7.40;100.00
11349;BME280;5729;43.570;27.826;2023-02-21T03:42:36;98856.00;;;7.42;100.00
11349;BME280;5729;43.570;27.826;2023-02-21T03:45:01;98868.69;;;7.45;100.00
11349;BME280;5729;43.570;27.826;2023-02-21T03:47:27;98871.03;;;7.47;100.00
11349;BME280;5729;43.570;27.826;2023-02-21T03:49:52;98869.16;;;7.47;100.00
11349;BME280;5729;43.570;27.826;2023-02-21T03:52:18;98864.22;;;7.49;100.00
11349;BME280;5729;43.570;27.826;2023-02-21T03:54:43;98862.78;;;7.52;100.00
11349;BME280;5729;43.570;27.826;2023-02-21T03:57:09;98852.94;;;7.56;100.00
11349;BME280;5729;43.570;27.826;2023-02-21T03:59:34;98843.50;;;7.62;100.00
11349;BME280;5729;43.570;27.826;2023-02-21T04:02:00;98838.59;;;7.64;100.00
11349;BME280;5729;43.570;27.826;2023-02-21T04:04:26;98839.25;;;7.61;100.00
11349;BME280;5729;43.570;27.826;2023-02-21T04:06:51;98826.91;;;7.72;100.00
11349;BME280;5729;43.570;27.826;2023-02-21T04:09:16;98818.72;;;7.81;100.00
11349;BME280;5729;43.570;27.826;2023-02-21T04:11:43;98814.47;;;7.80;100.00
11349;BME280;5729;43.570;27.826;2023-02-21T04:14:08;98825.28;;;7.83;100.00
11349;BME280;5729;43.570;27.826;2023-02-21T04:16:34;98825.06;;;7.88;100.00
11349;BME280;5729;43.570;27.826;2023-02-21T04:19:00;98833.53;;;7.90;100.00
11349;BME280;5729;43.570;27.826;2023-02-21T04:21:25;98828.34;;;7.97;100.00
11349;BME280;5729;43.570;27.826;2023-02-21T04:23:51;98829.91;;;8.14;100.00
11349;BME280;5729;43.570;27.826;2023-02-21T04:26:16;98815.38;;;8.15;100.00
11349;BME280;5729;43.570;27.826;2023-02-21T04:28:42;98810.78;;;8.16;100.00
11349;BME280;5729;43.570;27.826;2023-02-21T04:31:07;98814.50;;;8.27;100.00
11349;BME280;5729;43.570;27.826;2023-02-21T04:33:33;98815.28;;;8.27;100.00
11349;BME280;5729;43.570;27.826;2023-02-21T04:35:58;98808.34;;;8.26;100.00
11349;BME280;5729;43.570;27.826;2023-02-21T04:38:23;98818.88;;;8.31;100.00
11349;BME280;5729;43.570;27.826;2023-02-21T04:40:49;98813.81;;;8.30;100.00
11349;BME280;5729;43.570;27.826;2023-02-21T04:43:14;98804.88;;;8.26;100.00
11349;BME280;5729;43.570;27.826;2023-02-21T04:45:40;98805.31;;;8.28;100.00
11349;BME280;5729;43.570;27.826;2023-02-21T04:48:05;98807.56;;;8.26;100.00
11349;BME280;5729;43.570;27.826;2023-02-21T04:50:30;98793.31;;;8.22;100.00
11349;BME280;5729;43.570;27.826;2023-02-21T04:52:56;98802.38;;;8.17;100.00
11349;BME280;5729;43.570;27.826;2023-02-21T04:55:21;98794.69;;;8.16;100.00
11349;BME280;5729;43.570;27.826;2023-02-21T04:57:47;98800.38;;;8.14;100.00
11349;BME280;5729;43.570;27.826;2023-02-21T05:00:13;98796.56;;;8.15;100.00
11349;BME280;5729;43.570;27.826;2023-02-21T05:02:44;98797.78;;;8.18;100.00
11349;BME280;5729;43.570;27.826;2023-02-21T05:05:10;98794.22;;;8.14;100.00
11349;BME280;5729;43.570;27.826;2023-02-21T05:07:35;98799.09;;;8.08;100.00
11349;BME280;5729;43.570;27.826;2023-02-21T05:10:01;98797.97;;;8.09;100.00
11349;BME280;5729;43.570;27.826;2023-02-21T05:12:30;98797.53;;;8.07;100.00
11349;BME280;5729;43.570;27.826;2023-02-21T05:14:55;98793.91;;;7.99;100.00
11349;BME280;5729;43.570;27.826;2023-02-21T05:17:21;98806.97;;;8.01;100.00
11349;BME280;5729;43.570;27.826;2023-02-21T05:19:46;98810.41;;;8.01;100.00
11349;BME280;5729;43.570;27.826;2023-02-21T05:22:12;98806.63;;;8.02;100.00
11349;BME280;5729;43.570;27.826;2023-02-21T05:24:40;98803.59;;;8.04;100.00
11349;BME280;5729;43.570;27.826;2023-02-21T05:27:07;98807.06;;;8.05;100.00
11349;BME280;5729;43.570;27.826;2023-02-21T05:29:36;98813.19;;;8.05;100.00
11349;BME280;5729;43.570;27.826;2023-02-21T05:32:02;98813.19;;;8.05;100.00
11349;BME280;5729;43.570;27.826;2023-02-21T05:34:27;98808.38;;;8.11;100.00
11349;BME280;5729;43.570;27.826;2023-02-21T05:36:53;98811.22;;;8.18;100.00
11349;BME280;5729;43.570;27.826;2023-02-21T05:39:18;98801.69;;;8.20;100.00
11349;BME280;5729;43.570;27.826;2023-02-21T05:41:48;98798.31;;;8.23;100.00
11349;BME280;5729;43.570;27.826;2023-02-21T05:44:14;98812.94;;;8.26;100.00
11349;BME280;5729;43.570;27.826;2023-02-21T05:46:39;98780.13;;;8.17;100.00
11349;BME280;5729;43.570;27.826;2023-02-21T05:49:05;98790.34;;;8.27;100.00
11349;BME280;5729;43.570;27.826;2023-02-21T05:51:42;98803.25;;;8.37;100.00
11349;BME280;5729;43.570;27.826;2023-02-21T05:54:12;98802.91;;;8.38;100.00
11349;BME280;5729;43.570;27.826;2023-02-21T05:56:42;98792.13;;;8.35;100.00
11349;BME280;5729;43.570;27.826;2023-02-21T05:59:08;98790.81;;;8.45;100.00
11349;BME280;5729;43.570;27.826;2023-02-21T06:01:34;98805.66;;;8.58;100.00
11349;BME280;5729;43.570;27.826;2023-02-21T06:03:59;98800.91;;;8.67;100.00
11349;BME280;5729;43.570;27.826;2023-02-21T06:06:25;98809.53;;;8.76;100.00
11349;BME280;5729;43.570;27.826;2023-02-21T06:08:50;98796.81;;;8.73;100.00
11349;BME280;5729;43.570;27.826;2023-02-21T06:11:23;98805.88;;;8.84;100.00
11349;BME280;5729;43.570;27.826;2023-02-21T06:13:50;98803.81;;;8.78;100.00
11349;BME280;5729;43.570;27.826;2023-02-21T06:16:16;98806.88;;;8.95;100.00
11349;BME280;5729;43.570;27.826;2023-02-21T06:18:42;98829.41;;;9.06;100.00
11349;BME280;5729;43.570;27.826;2023-02-21T06:21:07;98806.41;;;9.09;100.00
11349;BME280;5729;43.570;27.826;2023-02-21T06:23:33;98811.09;;;9.12;100.00
11349;BME280;5729;43.570;27.826;2023-02-21T06:25:58;98809.41;;;9.23;100.00
11349;BME280;5729;43.570;27.826;2023-02-21T06:28:28;98816.81;;;9.30;100.00
11349;BME280;5729;43.570;27.826;2023-02-21T06:30:54;98818.50;;;9.38;100.00
11349;BME280;5729;43.570;27.826;2023-02-21T06:33:20;98819.38;;;9.42;100.00
11349;BME280;5729;43.570;27.826;2023-02-21T06:35:45;98825.97;;;9.44;100.00
11349;BME280;5729;43.570;27.826;2023-02-21T06:38:10;98828.22;;;9.42;100.00
11349;BME280;5729;43.570;27.826;2023-02-21T06:40:36;98818.78;;;9.52;100.00
11349;BME280;5729;43.570;27.826;2023-02-21T06:43:02;98812.38;;;9.57;100.00
11349;BME280;5729;43.570;27.826;2023-02-21T06:45:28;98827.22;;;9.70;100.00
11349;BME280;5729;43.570;27.826;2023-02-21T06:47:53;98822.31;;;9.75;100.00
11349;BME280;5729;43.570;27.826;2023-02-21T06:50:18;98823.53;;;9.78;100.00
11349;BME280;5729;43.570;27.826;2023-02-21T06:52:44;98836.03;;;9.90;100.00
11349;BME280;5729;43.570;27.826;2023-02-21T06:55:09;98816.88;;;9.95;100.00
11349;BME280;5729;43.570;27.826;2023-02-21T06:57:35;98826.16;;;9.97;100.00
11349;BME280;5729;43.570;27.826;2023-02-21T07:00:01;98823.31;;;10.09;100.00
11349;BME280;5729;43.570;27.826;2023-02-21T07:02:26;98824.16;;;10.13;100.00
11349;BME280;5729;43.570;27.826;2023-02-21T07:04:52;98813.94;;;10.23;100.00
11349;BME280;5729;43.570;27.826;2023-02-21T07:07:17;98824.88;;;10.33;100.00
11349;BME280;5729;43.570;27.826;2023-02-21T07:09:43;98816.13;;;10.40;100.00
11349;BME280;5729;43.570;27.826;2023-02-21T07:12:08;98815.53;;;10.50;100.00
11349;BME280;5729;43.570;27.826;2023-02-21T07:14:34;98831.09;;;10.60;100.00
11349;BME280;5729;43.570;27.826;2023-02-21T07:17:00;98813.53;;;10.70;100.00
11349;BME280;5729;43.570;27.826;2023-02-21T07:19:25;98817.44;;;10.76;100.00
11349;BME280;5729;43.570;27.826;2023-02-21T07:21:50;98818.34;;;10.83;100.00
11349;BME280;5729;43.570;27.826;2023-02-21T07:24:16;98817.38;;;10.99;100.00
11349;BME280;5729;43.570;27.826;2023-02-21T07:26:41;98819.50;;;11.12;100.00
11349;BME280;5729;43.570;27.826;2023-02-21T07:29:07;98807.63;;;11.17;100.00
11349;BME280;5729;43.570;27.826;2023-02-21T07:31:32;98820.78;;;11.22;100.00
11349;BME280;5729;43.570;27.826;2023-02-21T07:33:58;98816.00;;;11.42;100.00
11349;BME280;5729;43.570;27.826;2023-02-21T07:36:23;98796.38;;;11.45;100.00
11349;BME280;5729;43.570;27.826;2023-02-21T07:38:49;98803.94;;;11.65;100.00
11349;BME280;5729;43.570;27.826;2023-02-21T07:41:15;98780.06;;;11.68;99.11
11349;BME280;5729;43.570;27.826;2023-02-21T07:43:41;98792.59;;;11.83;99.19
11349;BME280;5729;43.570;27.826;2023-02-21T07:46:15;98798.59;;;12.06;94.91
11349;BME280;5729;43.570;27.826;2023-02-21T07:48:41;98799.09;;;12.22;93.85
11349;BME280;5729;43.570;27.826;2023-02-21T07:51:07;98795.47;;;12.52;93.53
11349;BME280;5729;43.570;27.826;2023-02-21T07:53:33;98802.59;;;12.78;88.51
11349;BME280;5729;43.570;27.826;2023-02-21T07:55:58;98805.81;;;13.01;87.21
11349;BME280;5729;43.570;27.826;2023-02-21T07:58:24;98793.97;;;13.23;83.99
11349;BME280;5729;43.570;27.826;2023-02-21T08:00:50;98807.59;;;13.41;81.25
11349;BME280;5729;43.570;27.826;2023-02-21T08:03:16;98800.28;;;13.66;79.16
11349;BME280;5729;43.570;27.826;2023-02-21T08:05:42;98821.66;;;13.96;74.95
11349;BME280;5729;43.570;27.826;2023-02-21T08:08:08;98805.00;;;14.23;72.74
11349;BME280;5729;43.570;27.826;2023-02-21T08:10:35;98817.84;;;14.50;69.72
11349;BME280;5729;43.570;27.826;2023-02-21T08:13:00;98820.03;;;15.12;64.89
11349;BME280;5729;43.570;27.826;2023-02-21T08:15:26;98805.38;;;15.86;60.42
11349;BME280;5729;43.570;27.826;2023-02-21T08:17:51;98810.88;;;17.17;55.27
11349;BME280;5729;43.570;27.826;2023-02-21T08:20:17;98809.81;;;17.41;52.37
11349;BME280;5729;43.570;27.826;2023-02-21T08:22:43;98803.41;;;18.35;50.40
11349;BME280;5729;43.570;27.826;2023-02-21T08:25:10;98796.00;;;18.82;46.14
11349;BME280;5729;43.570;27.826;2023-02-21T08:27:43;98803.00;;;20.15;44.13
11349;BME280;5729;43.570;27.826;2023-02-21T08:30:11;98779.84;;;23.31;37.83
11349;BME280;5729;43.570;27.826;2023-02-21T08:32:36;98781.00;;;25.78;33.17
11349;BME280;5729;43.570;27.826;2023-02-21T08:35:03;98778.50;;;27.81;28.95
11349;BME280;5729;43.570;27.826;2023-02-21T08:37:31;98771.69;;;28.32;27.47
11349;BME280;5729;43.570;27.826;2023-02-21T08:39:58;98750.81;;;26.93;28.43
11349;BME280;5729;43.570;27.826;2023-02-21T08:42:24;98751.56;;;26.31;28.83
11349;BME280;5729;43.570;27.826;2023-02-21T08:44:50;98748.59;;;26.83;29.05
11349;BME280;5729;43.570;27.826;2023-02-21T08:47:16;98762.47;;;27.41;28.39
11349;BME280;5729;43.570;27.826;2023-02-21T08:49:46;98747.91;;;27.91;28.13
11349;BME280;5729;43.570;27.826;2023-02-21T08:52:16;98752.28;;;27.97;27.73
11349;BME280;5729;43.570;27.826;2023-02-21T08:54:43;98729.31;;;26.88;27.77
11349;BME280;5729;43.570;27.826;2023-02-21T08:57:09;98761.69;;;26.58;28.58
11349;BME280;5729;43.570;27.826;2023-02-21T08:59:34;98739.63;;;26.01;27.94
11349;BME280;5729;43.570;27.826;2023-02-21T09:02:02;98747.38;;;25.37;30.08
11349;BME280;5729;43.570;27.826;2023-02-21T09:04:27;98730.63;;;25.92;29.55
11349;BME280;5729;43.570;27.826;2023-02-21T09:06:54;98725.06;;;25.17;29.41
11349;BME280;5729;43.570;27.826;2023-02-21T09:09:19;98712.41;;;24.46;30.30
11349;BME280;5729;43.570;27.826;2023-02-21T09:11:45;98721.41;;;23.48;32.10
11349;BME280;5729;43.570;27.826;2023-02-21T09:14:13;98711.00;;;21.62;33.59
11349;BME280;5729;43.570;27.826;2023-02-21T09:16:38;98711.75;;;21.24;35.08
11349;BME280;5729;43.570;27.826;2023-02-21T09:19:04;98706.59;;;21.26;34.95
11349;BME280;5729;43.570;27.826;2023-02-21T09:21:32;98711.25;;;21.13;36.00
11349;BME280;5729;43.570;27.826;2023-02-21T09:23:57;98694.72;;;21.17;35.37
11349;BME280;5729;43.570;27.826;2023-02-21T09:26:24;98697.78;;;21.06;36.36
11349;BME280;5729;43.570;27.826;2023-02-21T09:28:51;98694.34;;;21.44;36.14
11349;BME280;5729;43.570;27.826;2023-02-21T09:31:17;98707.75;;;20.71;36.35
11349;BME280;5729;43.570;27.826;2023-02-21T09:33:44;98700.69;;;20.57;35.85
11349;BME280;5729;43.570;27.826;2023-02-21T09:36:10;98707.84;;;20.22;36.87
11349;BME280;5729;43.570;27.826;2023-02-21T09:38:36;98693.63;;;20.73;37.19
11349;BME280;5729;43.570;27.826;2023-02-21T09:41:08;98696.84;;;21.38;35.78
11349;BME280;5729;43.570;27.826;2023-02-21T09:43:36;98695.00;;;20.93;36.08
11349;BME280;5729;43.570;27.826;2023-02-21T09:49:13;98679.44;;;20.33;36.26
11349;BME280;5729;43.570;27.826;2023-02-21T09:51:42;98663.13;;;20.13;37.01
11349;BME280;5729;43.570;27.826;2023-02-21T09:56:47;98654.13;;;20.28;37.60
11349;BME280;5729;43.570;27.826;2023-02-21T09:59:13;98640.34;;;20.32;37.71
11349;BME280;5729;43.570;27.826;2023-02-21T10:02:01;98648.31;;;19.98;37.87
11349;BME280;5729;43.570;27.826;2023-02-21T10:07:20;98629.16;;;19.81;39.33
11349;BME280;5729;43.570;27.826;2023-02-21T10:10:08;98612.72;;;19.52;38.33
11349;BME280;5729;43.570;27.826;2023-02-21T10:12:47;98609.88;;;19.56;38.94
11349;BME280;5729;43.570;27.826;2023-02-21T10:16:28;98613.16;;;19.31;39.77
11349;BME280;5729;43.570;27.826;2023-02-21T10:21:36;98611.09;;;19.03;39.86
11349;BME280;5729;43.570;27.826;2023-02-21T10:24:11;98606.47;;;19.00;40.21
11349;BME280;5729;43.570;27.826;2023-02-21T10:26:37;98607.09;;;18.71;40.02
11349;BME280;5729;43.570;27.826;2023-02-21T10:32:07;98596.75;;;19.31;39.42
11349;BME280;5729;43.570;27.826;2023-02-21T10:34:33;98599.59;;;19.92;38.06
11349;BME280;5729;43.570;27.826;2023-02-21T10:40:03;98592.81;;;21.82;35.74
11349;BME280;5729;43.570;27.826;2023-02-21T10:42:38;98582.94;;;23.24;33.51
11349;BME280;5729;43.570;27.826;2023-02-21T10:45:06;98556.69;;;24.69;32.08
11349;BME280;5729;43.570;27.826;2023-02-21T10:47:49;98573.63;;;25.61;30.39
11349;BME280;5729;43.570;27.826;2023-02-21T10:53:32;98555.69;;;25.80;28.84
11349;BME280;5729;43.570;27.826;2023-02-21T10:58:34;98561.88;;;24.76;29.96
11349;BME280;5729;43.570;27.826;2023-02-21T11:01:16;98545.44;;;24.21;30.75
11349;BME280;5729;43.570;27.826;2023-02-21T11:03:48;98557.09;;;23.12;31.94
11349;BME280;5729;43.570;27.826;2023-02-21T11:06:30;98545.81;;;22.58;31.90
11349;BME280;5729;43.570;27.826;2023-02-21T11:08:57;98558.94;;;21.76;33.28
11349;BME280;5729;43.570;27.826;2023-02-21T11:11:38;98561.19;;;21.55;34.05
11349;BME280;5729;43.570;27.826;2023-02-21T11:16:42;98569.00;;;21.06;35.02
11349;BME280;5729;43.570;27.826;2023-02-21T11:19:12;98555.03;;;21.64;33.85
11349;BME280;5729;43.570;27.826;2023-02-21T11:21:40;98568.84;;;21.95;33.08
11349;BME280;5729;43.570;27.826;2023-02-21T11:24:07;98545.16;;;22.23;32.64
11349;BME280;5729;43.570;27.826;2023-02-21T11:26:53;98549.19;;;22.09;32.55
11349;BME280;5729;43.570;27.826;2023-02-21T11:29:20;98537.28;;;22.56;31.97
11349;BME280;5729;43.570;27.826;2023-02-21T11:31:49;98551.28;;;23.10;31.58
11349;BME280;5729;43.570;27.826;2023-02-21T11:34:17;98532.56;;;23.45;30.46
11349;BME280;5729;43.570;27.826;2023-02-21T11:36:45;98533.25;;;23.09;31.21
11349;BME280;5729;43.570;27.826;2023-02-21T11:39:22;98521.69;;;23.24;31.06
11349;BME280;5729;43.570;27.826;2023-02-21T11:41:54;98527.13;;;23.14;30.58
11349;BME280;5729;43.570;27.826;2023-02-21T11:44:33;98518.41;;;23.56;30.25
11349;BME280;5729;43.570;27.826;2023-02-21T11:49:46;98514.06;;;23.37;30.05
11349;BME280;5729;43.570;27.826;2023-02-21T11:52:15;98503.25;;;23.51;29.76
11349;BME280;5729;43.570;27.826;2023-02-21T11:54:42;98502.13;;;23.31;30.33
11349;BME280;5729;43.570;27.826;2023-02-21T12:00:41;98479.81;;;24.20;29.06
11349;BME280;5729;43.570;27.826;2023-02-21T12:06:05;98491.50;;;23.51;29.08
11349;BME280;5729;43.570;27.826;2023-02-21T12:22:40;98454.69;;;24.45;27.46
11349;BME280;5729;43.570;27.826;2023-02-21T12:25:26;98456.19;;;24.55;27.70
11349;BME280;5729;43.570;27.826;2023-02-21T12:28:03;98458.22;;;24.79;27.49
11349;BME280;5729;43.570;27.826;2023-02-21T12:44:21;98439.34;;;23.38;29.03
11349;BME280;5729;43.570;27.826;2023-02-21T12:52:40;98429.81;;;24.21;28.18
11349;BME280;5729;43.570;27.826;2023-02-21T12:55:23;98399.41;;;24.07;28.36
11349;BME280;5729;43.570;27.826;2023-02-21T13:00:44;98388.69;;;23.58;28.27
11349;BME280;5729;43.570;27.826;2023-02-21T13:03:39;98399.34;;;23.28;27.75
11349;BME280;5729;43.570;27.826;2023-02-21T13:14:01;98346.53;;;24.03;28.43
11349;BME280;5729;43.570;27.826;2023-02-21T13:16:27;98362.94;;;23.88;28.97
11349;BME280;5729;43.570;27.826;2023-02-21T13:18:57;98376.13;;;23.20;29.42
11349;BME280;5729;43.570;27.826;2023-02-21T13:29:43;98383.28;;;22.90;28.50
11349;BME280;5729;43.570;27.826;2023-02-21T13:32:12;98416.78;;;22.67;28.86
11349;BME280;5729;43.570;27.826;2023-02-21T13:34:44;98406.88;;;21.77;29.38
11349;BME280;5729;43.570;27.826;2023-02-21T13:37:17;98429.25;;;21.53;30.17
11349;BME280;5729;43.570;27.826;2023-02-21T13:39:48;98407.09;;;21.26;30.62
11349;BME280;5729;43.570;27.826;2023-02-21T13:42:18;98422.72;;;20.91;31.03
11349;BME280;5729;43.570;27.826;2023-02-21T13:44:47;98408.06;;;20.34;31.58
11349;BME280;5729;43.570;27.826;2023-02-21T13:47:16;98422.88;;;20.37;32.17
11349;BME280;5729;43.570;27.826;2023-02-21T13:49:54;98414.72;;;20.20;32.05
11349;BME280;5729;43.570;27.826;2023-02-21T13:57:45;98424.69;;;19.60;33.51
11349;BME280;5729;43.570;27.826;2023-02-21T14:02:54;98437.09;;;19.48;33.75
11349;BME280;5729;43.570;27.826;2023-02-21T14:05:21;98426.03;;;19.23;34.08
11349;BME280;5729;43.570;27.826;2023-02-21T14:07:53;98432.59;;;19.09;34.33
11349;BME280;5729;43.570;27.826;2023-02-21T14:10:28;98444.00;;;18.92;35.17
11349;BME280;5729;43.570;27.826;2023-02-21T14:12:58;98420.69;;;19.03;34.84
11349;BME280;5729;43.570;27.826;2023-02-21T14:15:39;98442.00;;;19.08;35.29
11349;BME280;5729;43.570;27.826;2023-02-21T14:18:17;98437.41;;;19.05;35.39
11349;BME280;5729;43.570;27.826;2023-02-21T14:20:47;98451.66;;;18.97;35.68
11349;BME280;5729;43.570;27.826;2023-02-21T14:23:15;98435.44;;;18.90;35.82
11349;BME280;5729;43.570;27.826;2023-02-21T14:25:53;98435.47;;;18.73;35.84
11349;BME280;5729;43.570;27.826;2023-02-21T14:28:48;98453.69;;;18.76;36.24
11349;BME280;5729;43.570;27.826;2023-02-21T14:31:48;98447.22;;;18.86;36.56
11349;BME280;5729;43.570;27.826;2023-02-21T14:34:20;98446.56;;;18.82;36.97
11349;BME280;5729;43.570;27.826;2023-02-21T14:36:48;98450.56;;;18.62;37.37
11349;BME280;5729;43.570;27.826;2023-02-21T14:39:16;98440.31;;;18.66;36.89
11349;BME280;5729;43.570;27.826;2023-02-21T14:42:00;98443.31;;;18.51;37.65
11349;BME280;5729;43.570;27.826;2023-02-21T14:53:39;98434.53;;;18.08;38.49
11349;BME280;5729;43.570;27.826;2023-02-21T15:01:55;98343.50;;;17.46;40.03
11349;BME280;5729;43.570;27.826;2023-02-21T15:04:36;98325.28;;;17.43;39.84
11349;BME280;5729;43.570;27.826;2023-02-21T15:07:33;98338.84;;;17.47;39.78
11349;BME280;5729;43.570;27.826;2023-02-21T15:10:23;98366.84;;;17.47;39.84
11349;BME280;5729;43.570;27.826;2023-02-21T15:12:56;98385.41;;;17.32;40.11
11349;BME280;5729;43.570;27.826;2023-02-21T15:15:40;98430.66;;;17.26;41.13
11349;BME280;5729;43.570;27.826;2023-02-21T15:18:14;98456.06;;;17.20;41.24
11349;BME280;5729;43.570;27.826;2023-02-21T15:21:02;98478.13;;;17.02;41.94
11349;BME280;5729;43.570;27.826;2023-02-21T15:23:27;98486.16;;;16.86;42.66
11349;BME280;5729;43.570;27.826;2023-02-21T15:25:59;98486.72;;;16.74;43.53
11349;BME280;5729;43.570;27.826;2023-02-21T15:28:27;98495.25;;;16.76;43.43
11349;BME280;5729;43.570;27.826;2023-02-21T15:31:02;98491.28;;;16.53;43.32
11349;BME280;5729;43.570;27.826;2023-02-21T15:33:32;98494.41;;;16.52;43.62
11349;BME280;5729;43.570;27.826;2023-02-21T15:36:05;98493.72;;;16.44;43.83
11349;BME280;5729;43.570;27.826;2023-02-21T15:41:02;98506.22;;;16.38;43.87
11349;BME280;5729;43.570;27.826;2023-02-21T15:49:05;98512.06;;;16.06;44.70
11349;BME280;5729;43.570;27.826;2023-02-21T15:51:31;98517.13;;;16.04;44.71
11349;BME280;5729;43.570;27.826;2023-02-21T15:56:41;98524.75;;;15.82;45.54
11349;BME280;5729;43.570;27.826;2023-02-21T15:59:19;98515.44;;;15.83;45.57
11349;BME280;5729;43.570;27.826;2023-02-21T16:01:47;98531.03;;;15.76;45.97
11349;BME280;5729;43.570;27.826;2023-02-21T16:04:35;98528.72;;;15.74;46.05
11349;BME280;5729;43.570;27.826;2023-02-21T16:07:00;98537.00;;;15.60;46.63
11349;BME280;5729;43.570;27.826;2023-02-21T16:09:29;98552.09;;;15.65;46.71
11349;BME280;5729;43.570;27.826;2023-02-21T16:14:43;98556.28;;;15.73;46.69